sensor_id;sensor_type;location;lat;lon;timestamp;P1;durP1;ratioP1;P2;durP2;ratioP2
8714;SDS011;4394;51.208;8.904;2022-11-20T00:00:04;11.53;;;7.30;;
8714;SDS011;4394;51.208;8.904;2022-11-20T00:02:53;15.07;;;7.30;;
8714;SDS011;4394;51.208;8.904;2022-11-20T00:05:41;12.30;;;7.57;;
8714;SDS011;4394;51.208;8.904;2022-11-20T00:08:29;14.43;;;7.50;;
8714;SDS011;4394;51.208;8.904;2022-11-20T00:11:18;13.70;;;7.33;;
8714;SDS011;4394;51.208;8.904;2022-11-20T00:14:12;12.90;;;7.17;;
8714;SDS011;4394;51.208;8.904;2022-11-20T00:17:01;15.80;;;7.40;;
8714;SDS011;4394;51.208;8.904;2022-11-20T00:19:49;13.13;;;7.27;;
8714;SDS011;4394;51.208;8.904;2022-11-20T00:22:38;13.23;;;6.93;;
8714;SDS011;4394;51.208;8.904;2022-11-20T00:25:27;15.00;;;6.87;;
8714;SDS011;4394;51.208;8.904;2022-11-20T00:28:15;10.97;;;6.03;;
8714;SDS011;4394;51.208;8.904;2022-11-20T00:31:04;11.97;;;6.23;;
8714;SDS011;4394;51.208;8.904;2022-11-20T00:33:54;14.87;;;6.50;;
8714;SDS011;4394;51.208;8.904;2022-11-20T00:36:43;9.83;;;5.97;;
8714;SDS011;4394;51.208;8.904;2022-11-20T00:39:31;11.77;;;6.07;;
8714;SDS011;4394;51.208;8.904;2022-11-20T00:42:19;12.67;;;6.53;;
8714;SDS011;4394;51.208;8.904;2022-11-20T00:45:07;11.30;;;6.17;;
8714;SDS011;4394;51.208;8.904;2022-11-20T00:47:56;12.67;;;7.10;;
8714;SDS011;4394;51.208;8.904;2022-11-20T00:50:45;14.13;;;6.40;;
8714;SDS011;4394;51.208;8.904;2022-11-20T00:53:33;10.43;;;6.10;;
8714;SDS011;4394;51.208;8.904;2022-11-20T00:56:21;12.73;;;6.27;;
8714;SDS011;4394;51.208;8.904;2022-11-20T00:59:09;15.07;;;6.70;;
8714;SDS011;4394;51.208;8.904;2022-11-20T01:01:58;9.87;;;6.30;;
8714;SDS011;4394;51.208;8.904;2022-11-20T01:04:46;13.23;;;6.63;;
8714;SDS011;4394;51.208;8.904;2022-11-20T01:07:35;15.77;;;6.30;;
8714;SDS011;4394;51.208;8.904;2022-11-20T01:10:23;12.33;;;6.90;;
8714;SDS011;4394;51.208;8.904;2022-11-20T01:13:11;10.97;;;6.27;;
8714;SDS011;4394;51.208;8.904;2022-11-20T01:16:18;10.80;;;6.60;;
8714;SDS011;4394;51.208;8.904;2022-11-20T01:19:09;11.73;;;6.33;;
8714;SDS011;4394;51.208;8.904;2022-11-20T01:22:03;12.60;;;6.10;;
8714;SDS011;4394;51.208;8.904;2022-11-20T01:24:53;12.17;;;6.50;;
8714;SDS011;4394;51.208;8.904;2022-11-20T01:27:41;11.73;;;6.37;;
8714;SDS011;4394;51.208;8.904;2022-11-20T01:30:29;9.60;;;5.97;;
8714;SDS011;4394;51.208;8.904;2022-11-20T01:33:17;15.03;;;6.57;;
8714;SDS011;4394;51.208;8.904;2022-11-20T01:36:05;12.90;;;6.37;;
8714;SDS011;4394;51.208;8.904;2022-11-20T01:38:55;12.83;;;6.70;;
8714;SDS011;4394;51.208;8.904;2022-11-20T01:41:45;11.70;;;6.27;;
8714;SDS011;4394;51.208;8.904;2022-11-20T01:44:56;11.07;;;5.50;;
8714;SDS011;4394;51.208;8.904;2022-11-20T01:47:45;11.07;;;6.00;;
8714;SDS011;4394;51.208;8.904;2022-11-20T01:50:35;12.03;;;6.30;;
8714;SDS011;4394;51.208;8.904;2022-11-20T01:53:24;10.60;;;6.00;;
8714;SDS011;4394;51.208;8.904;2022-11-20T01:56:15;11.63;;;6.17;;
8714;SDS011;4394;51.208;8.904;2022-11-20T01:59:05;14.80;;;6.57;;
8714;SDS011;4394;51.208;8.904;2022-11-20T02:01:55;11.97;;;6.73;;
8714;SDS011;4394;51.208;8.904;2022-11-20T02:04:44;11.90;;;6.03;;
8714;SDS011;4394;51.208;8.904;2022-11-20T02:07:33;11.20;;;6.03;;
8714;SDS011;4394;51.208;8.904;2022-11-20T02:10:22;12.80;;;6.43;;
8714;SDS011;4394;51.208;8.904;2022-11-20T02:13:10;12.67;;;6.30;;
8714;SDS011;4394;51.208;8.904;2022-11-20T02:16:18;13.80;;;6.07;;
8714;SDS011;4394;51.208;8.904;2022-11-20T02:19:09;12.63;;;6.20;;
8714;SDS011;4394;51.208;8.904;2022-11-20T02:22:05;12.50;;;5.80;;
8714;SDS011;4394;51.208;8.904;2022-11-20T02:25:00;10.90;;;5.73;;
8714;SDS011;4394;51.208;8.904;2022-11-20T02:27:49;11.43;;;5.63;;
8714;SDS011;4394;51.208;8.904;2022-11-20T02:30:38;10.37;;;5.67;;
8714;SDS011;4394;51.208;8.904;2022-11-20T02:33:26;11.93;;;6.47;;
8714;SDS011;4394;51.208;8.904;2022-11-20T02:36:15;10.50;;;5.50;;
8714;SDS011;4394;51.208;8.904;2022-11-20T02:39:03;11.23;;;5.67;;
8714;SDS011;4394;51.208;8.904;2022-11-20T02:41:53;10.33;;;4.90;;
8714;SDS011;4394;51.208;8.904;2022-11-20T02:44:43;11.73;;;5.13;;
8714;SDS011;4394;51.208;8.904;2022-11-20T02:47:32;9.83;;;5.13;;
8714;SDS011;4394;51.208;8.904;2022-11-20T02:50:20;14.47;;;5.90;;
8714;SDS011;4394;51.208;8.904;2022-11-20T02:53:08;12.13;;;6.37;;
8714;SDS011;4394;51.208;8.904;2022-11-20T02:55:56;11.80;;;5.67;;
8714;SDS011;4394;51.208;8.904;2022-11-20T02:58:46;10.77;;;5.63;;
8714;SDS011;4394;51.208;8.904;2022-11-20T03:01:35;8.87;;;5.17;;
8714;SDS011;4394;51.208;8.904;2022-11-20T03:04:23;10.33;;;6.00;;
8714;SDS011;4394;51.208;8.904;2022-11-20T03:07:11;11.07;;;5.67;;
8714;SDS011;4394;51.208;8.904;2022-11-20T03:09:59;11.67;;;5.93;;
8714;SDS011;4394;51.208;8.904;2022-11-20T03:12:52;11.77;;;5.83;;
8714;SDS011;4394;51.208;8.904;2022-11-20T03:15:42;12.23;;;5.40;;
8714;SDS011;4394;51.208;8.904;2022-11-20T03:18:30;10.77;;;4.67;;
8714;SDS011;4394;51.208;8.904;2022-11-20T03:21:18;12.67;;;5.30;;
8714;SDS011;4394;51.208;8.904;2022-11-20T03:24:06;12.73;;;5.60;;
8714;SDS011;4394;51.208;8.904;2022-11-20T03:26:54;11.07;;;5.93;;
8714;SDS011;4394;51.208;8.904;2022-11-20T03:29:42;12.00;;;5.33;;
8714;SDS011;4394;51.208;8.904;2022-11-20T03:32:32;11.20;;;6.07;;
8714;SDS011;4394;51.208;8.904;2022-11-20T03:35:20;11.83;;;5.77;;
8714;SDS011;4394;51.208;8.904;2022-11-20T03:38:08;12.67;;;5.60;;
8714;SDS011;4394;51.208;8.904;2022-11-20T03:40:58;13.07;;;5.63;;
8714;SDS011;4394;51.208;8.904;2022-11-20T03:43:47;12.33;;;5.60;;
8714;SDS011;4394;51.208;8.904;2022-11-20T03:46:36;9.33;;;5.27;;
8714;SDS011;4394;51.208;8.904;2022-11-20T03:49:26;10.27;;;5.57;;
8714;SDS011;4394;51.208;8.904;2022-11-20T03:52:14;16.40;;;6.30;;
8714;SDS011;4394;51.208;8.904;2022-11-20T03:55:02;12.60;;;5.27;;
8714;SDS011;4394;51.208;8.904;2022-11-20T03:57:51;12.63;;;5.70;;
8714;SDS011;4394;51.208;8.904;2022-11-20T04:00:39;11.63;;;5.43;;
8714;SDS011;4394;51.208;8.904;2022-11-20T04:03:27;10.97;;;5.10;;
8714;SDS011;4394;51.208;8.904;2022-11-20T04:06:17;12.30;;;4.67;;
8714;SDS011;4394;51.208;8.904;2022-11-20T04:09:07;8.73;;;4.93;;
8714;SDS011;4394;51.208;8.904;2022-11-20T04:11:55;9.73;;;4.70;;
8714;SDS011;4394;51.208;8.904;2022-11-20T04:14:43;8.83;;;4.13;;
8714;SDS011;4394;51.208;8.904;2022-11-20T04:17:31;9.57;;;4.70;;
8714;SDS011;4394;51.208;8.904;2022-11-20T04:20:19;8.07;;;3.83;;
8714;SDS011;4394;51.208;8.904;2022-11-20T04:23:09;8.47;;;3.70;;
8714;SDS011;4394;51.208;8.904;2022-11-20T04:26:00;6.97;;;4.10;;
8714;SDS011;4394;51.208;8.904;2022-11-20T04:28:49;9.83;;;4.00;;
8714;SDS011;4394;51.208;8.904;2022-11-20T04:31:37;7.73;;;4.07;;
8714;SDS011;4394;51.208;8.904;2022-11-20T04:34:26;9.93;;;4.30;;
8714;SDS011;4394;51.208;8.904;2022-11-20T04:37:14;8.07;;;4.20;;
8714;SDS011;4394;51.208;8.904;2022-11-20T04:40:04;11.30;;;3.70;;
8714;SDS011;4394;51.208;8.904;2022-11-20T04:42:52;11.50;;;3.77;;
8714;SDS011;4394;51.208;8.904;2022-11-20T04:45:41;7.43;;;3.77;;
8714;SDS011;4394;51.208;8.904;2022-11-20T04:48:29;6.60;;;4.00;;
8714;SDS011;4394;51.208;8.904;2022-11-20T04:51:17;8.17;;;4.20;;
8714;SDS011;4394;51.208;8.904;2022-11-20T04:54:05;6.53;;;3.43;;
8714;SDS011;4394;51.208;8.904;2022-11-20T04:56:55;6.97;;;4.00;;
8714;SDS011;4394;51.208;8.904;2022-11-20T04:59:43;8.23;;;3.70;;
8714;SDS011;4394;51.208;8.904;2022-11-20T05:02:31;6.73;;;3.50;;
8714;SDS011;4394;51.208;8.904;2022-11-20T05:05:19;6.77;;;3.30;;
8714;SDS011;4394;51.208;8.904;2022-11-20T05:08:08;6.50;;;3.57;;
8714;SDS011;4394;51.208;8.904;2022-11-20T05:10:59;7.83;;;3.67;;
8714;SDS011;4394;51.208;8.904;2022-11-20T05:13:49;6.40;;;3.70;;
8714;SDS011;4394;51.208;8.904;2022-11-20T05:16:38;8.83;;;4.20;;
8714;SDS011;4394;51.208;8.904;2022-11-20T05:19:26;7.10;;;3.80;;
8714;SDS011;4394;51.208;8.904;2022-11-20T05:22:14;6.30;;;3.80;;
8714;SDS011;4394;51.208;8.904;2022-11-20T05:25:03;7.00;;;4.00;;
8714;SDS011;4394;51.208;8.904;2022-11-20T05:27:51;6.27;;;3.97;;
8714;SDS011;4394;51.208;8.904;2022-11-20T05:30:42;5.87;;;3.27;;
8714;SDS011;4394;51.208;8.904;2022-11-20T05:33:30;8.40;;;4.07;;
8714;SDS011;4394;51.208;8.904;2022-11-20T05:36:18;11.00;;;4.30;;
8714;SDS011;4394;51.208;8.904;2022-11-20T05:39:06;7.17;;;3.90;;
8714;SDS011;4394;51.208;8.904;2022-11-20T05:41:54;7.20;;;3.97;;
8714;SDS011;4394;51.208;8.904;2022-11-20T05:44:56;7.80;;;4.33;;
8714;SDS011;4394;51.208;8.904;2022-11-20T05:47:46;7.93;;;4.07;;
8714;SDS011;4394;51.208;8.904;2022-11-20T05:50:34;9.77;;;4.43;;
8714;SDS011;4394;51.208;8.904;2022-11-20T05:53:23;9.57;;;4.47;;
8714;SDS011;4394;51.208;8.904;2022-11-20T05:56:13;7.33;;;3.67;;
8714;SDS011;4394;51.208;8.904;2022-11-20T05:59:03;9.17;;;5.03;;
8714;SDS011;4394;51.208;8.904;2022-11-20T06:01:51;11.83;;;4.57;;
8714;SDS011;4394;51.208;8.904;2022-11-20T06:04:40;10.93;;;5.03;;
8714;SDS011;4394;51.208;8.904;2022-11-20T06:07:28;12.20;;;4.90;;
8714;SDS011;4394;51.208;8.904;2022-11-20T06:10:17;10.10;;;4.87;;
8714;SDS011;4394;51.208;8.904;2022-11-20T06:13:05;12.93;;;5.40;;
8714;SDS011;4394;51.208;8.904;2022-11-20T06:15:53;12.83;;;5.87;;
8714;SDS011;4394;51.208;8.904;2022-11-20T06:18:41;15.53;;;5.70;;
8714;SDS011;4394;51.208;8.904;2022-11-20T06:21:31;13.43;;;5.37;;
8714;SDS011;4394;51.208;8.904;2022-11-20T06:24:19;13.50;;;5.57;;
8714;SDS011;4394;51.208;8.904;2022-11-20T06:27:07;12.37;;;5.97;;
8714;SDS011;4394;51.208;8.904;2022-11-20T06:29:55;11.30;;;5.33;;
8714;SDS011;4394;51.208;8.904;2022-11-20T06:32:43;13.37;;;5.50;;
8714;SDS011;4394;51.208;8.904;2022-11-20T06:35:31;12.93;;;6.70;;
8714;SDS011;4394;51.208;8.904;2022-11-20T06:38:21;25.00;;;5.63;;
8714;SDS011;4394;51.208;8.904;2022-11-20T06:41:10;14.23;;;5.50;;
8714;SDS011;4394;51.208;8.904;2022-11-20T06:43:59;12.70;;;5.43;;
8714;SDS011;4394;51.208;8.904;2022-11-20T06:46:47;13.47;;;5.63;;
8714;SDS011;4394;51.208;8.904;2022-11-20T06:49:35;14.73;;;6.17;;
8714;SDS011;4394;51.208;8.904;2022-11-20T06:52:24;19.63;;;5.97;;
8714;SDS011;4394;51.208;8.904;2022-11-20T06:55:14;14.37;;;6.13;;
8714;SDS011;4394;51.208;8.904;2022-11-20T06:58:02;17.17;;;6.60;;
8714;SDS011;4394;51.208;8.904;2022-11-20T07:00:50;14.37;;;6.17;;
8714;SDS011;4394;51.208;8.904;2022-11-20T07:03:38;14.43;;;5.97;;
8714;SDS011;4394;51.208;8.904;2022-11-20T07:06:27;11.77;;;5.73;;
8714;SDS011;4394;51.208;8.904;2022-11-20T07:09:15;14.33;;;6.37;;
8714;SDS011;4394;51.208;8.904;2022-11-20T07:12:05;12.17;;;5.13;;
8714;SDS011;4394;51.208;8.904;2022-11-20T07:14:53;12.93;;;5.60;;
8714;SDS011;4394;51.208;8.904;2022-11-20T07:17:41;11.37;;;5.60;;
8714;SDS011;4394;51.208;8.904;2022-11-20T07:20:29;12.53;;;5.47;;
8714;SDS011;4394;51.208;8.904;2022-11-20T07:23:17;13.13;;;5.97;;
8714;SDS011;4394;51.208;8.904;2022-11-20T07:26:06;13.90;;;5.53;;
8714;SDS011;4394;51.208;8.904;2022-11-20T07:28:57;13.53;;;6.03;;
8714;SDS011;4394;51.208;8.904;2022-11-20T07:31:45;10.37;;;5.50;;
8714;SDS011;4394;51.208;8.904;2022-11-20T07:34:33;10.43;;;5.63;;
8714;SDS011;4394;51.208;8.904;2022-11-20T07:37:21;10.13;;;5.27;;
8714;SDS011;4394;51.208;8.904;2022-11-20T07:40:10;13.73;;;6.00;;
8714;SDS011;4394;51.208;8.904;2022-11-20T07:43:00;13.93;;;5.17;;
8714;SDS011;4394;51.208;8.904;2022-11-20T07:45:50;13.80;;;5.70;;
8714;SDS011;4394;51.208;8.904;2022-11-20T07:48:39;12.97;;;5.57;;
8714;SDS011;4394;51.208;8.904;2022-11-20T07:51:31;12.20;;;5.57;;
8714;SDS011;4394;51.208;8.904;2022-11-20T07:54:21;13.23;;;5.27;;
8714;SDS011;4394;51.208;8.904;2022-11-20T07:57:11;10.77;;;5.20;;
8714;SDS011;4394;51.208;8.904;2022-11-20T08:00:00;12.67;;;5.23;;
8714;SDS011;4394;51.208;8.904;2022-11-20T08:02:52;11.43;;;5.73;;
8714;SDS011;4394;51.208;8.904;2022-11-20T08:05:41;10.47;;;5.50;;
8714;SDS011;4394;51.208;8.904;2022-11-20T08:08:30;11.43;;;5.00;;
8714;SDS011;4394;51.208;8.904;2022-11-20T08:11:23;8.93;;;4.77;;
8714;SDS011;4394;51.208;8.904;2022-11-20T08:14:29;9.77;;;5.30;;
8714;SDS011;4394;51.208;8.904;2022-11-20T08:17:17;9.40;;;5.17;;
8714;SDS011;4394;51.208;8.904;2022-11-20T08:20:07;11.43;;;5.27;;
8714;SDS011;4394;51.208;8.904;2022-11-20T08:22:59;10.30;;;5.10;;
8714;SDS011;4394;51.208;8.904;2022-11-20T08:25:48;9.67;;;5.23;;
8714;SDS011;4394;51.208;8.904;2022-11-20T08:28:38;11.63;;;4.93;;
8714;SDS011;4394;51.208;8.904;2022-11-20T08:31:26;9.93;;;5.10;;
8714;SDS011;4394;51.208;8.904;2022-11-20T08:34:15;8.97;;;4.90;;
8714;SDS011;4394;51.208;8.904;2022-11-20T08:37:06;9.77;;;5.00;;
8714;SDS011;4394;51.208;8.904;2022-11-20T08:39:54;12.13;;;5.30;;
8714;SDS011;4394;51.208;8.904;2022-11-20T08:42:46;11.77;;;5.60;;
8714;SDS011;4394;51.208;8.904;2022-11-20T08:45:35;11.90;;;5.80;;
8714;SDS011;4394;51.208;8.904;2022-11-20T08:48:23;10.87;;;5.37;;
8714;SDS011;4394;51.208;8.904;2022-11-20T08:51:11;14.90;;;5.43;;
8714;SDS011;4394;51.208;8.904;2022-11-20T08:54:02;10.43;;;5.50;;
8714;SDS011;4394;51.208;8.904;2022-11-20T08:56:51;12.50;;;5.73;;
8714;SDS011;4394;51.208;8.904;2022-11-20T08:59:39;12.27;;;5.87;;
8714;SDS011;4394;51.208;8.904;2022-11-20T09:02:47;13.93;;;6.73;;
8714;SDS011;4394;51.208;8.904;2022-11-20T09:05:37;13.67;;;6.37;;
8714;SDS011;4394;51.208;8.904;2022-11-20T09:08:26;12.17;;;6.00;;
8714;SDS011;4394;51.208;8.904;2022-11-20T09:11:16;14.70;;;6.70;;
8714;SDS011;4394;51.208;8.904;2022-11-20T09:14:04;12.03;;;5.70;;
8714;SDS011;4394;51.208;8.904;2022-11-20T09:16:52;13.50;;;6.67;;
8714;SDS011;4394;51.208;8.904;2022-11-20T09:19:40;10.67;;;5.50;;
8714;SDS011;4394;51.208;8.904;2022-11-20T09:22:28;11.43;;;6.00;;
8714;SDS011;4394;51.208;8.904;2022-11-20T09:25:17;12.37;;;5.77;;
8714;SDS011;4394;51.208;8.904;2022-11-20T09:28:07;13.33;;;6.00;;
8714;SDS011;4394;51.208;8.904;2022-11-20T09:30:55;12.60;;;6.10;;
8714;SDS011;4394;51.208;8.904;2022-11-20T09:33:43;13.10;;;6.53;;
8714;SDS011;4394;51.208;8.904;2022-11-20T09:36:31;12.23;;;5.90;;
8714;SDS011;4394;51.208;8.904;2022-11-20T09:39:19;13.13;;;6.20;;
8714;SDS011;4394;51.208;8.904;2022-11-20T09:42:18;13.10;;;6.20;;
8714;SDS011;4394;51.208;8.904;2022-11-20T09:45:23;12.20;;;5.87;;
8714;SDS011;4394;51.208;8.904;2022-11-20T09:48:20;15.10;;;7.07;;
8714;SDS011;4394;51.208;8.904;2022-11-20T09:51:22;14.00;;;6.27;;
8714;SDS011;4394;51.208;8.904;2022-11-20T09:54:17;13.53;;;7.53;;
8714;SDS011;4394;51.208;8.904;2022-11-20T09:57:10;15.23;;;7.67;;
8714;SDS011;4394;51.208;8.904;2022-11-20T10:00:03;16.87;;;7.80;;
8714;SDS011;4394;51.208;8.904;2022-11-20T10:02:55;16.23;;;7.77;;
8714;SDS011;4394;51.208;8.904;2022-11-20T10:05:47;18.07;;;8.40;;
8714;SDS011;4394;51.208;8.904;2022-11-20T10:08:39;17.20;;;7.93;;
8714;SDS011;4394;51.208;8.904;2022-11-20T10:11:33;18.13;;;7.57;;
8714;SDS011;4394;51.208;8.904;2022-11-20T10:14:34;15.13;;;7.70;;
8714;SDS011;4394;51.208;8.904;2022-11-20T10:17:41;18.63;;;7.13;;
8714;SDS011;4394;51.208;8.904;2022-11-20T10:20:46;13.53;;;7.27;;
8714;SDS011;4394;51.208;8.904;2022-11-20T10:23:46;15.63;;;7.80;;
8714;SDS011;4394;51.208;8.904;2022-11-20T10:26:43;17.33;;;7.37;;
8714;SDS011;4394;51.208;8.904;2022-11-20T10:29:41;17.97;;;7.67;;
8714;SDS011;4394;51.208;8.904;2022-11-20T10:32:34;20.03;;;8.43;;
8714;SDS011;4394;51.208;8.904;2022-11-20T10:35:25;23.97;;;9.33;;
8714;SDS011;4394;51.208;8.904;2022-11-20T10:38:21;20.97;;;8.80;;
8714;SDS011;4394;51.208;8.904;2022-11-20T10:41:15;19.57;;;8.80;;
8714;SDS011;4394;51.208;8.904;2022-11-20T10:44:15;19.93;;;9.10;;
8714;SDS011;4394;51.208;8.904;2022-11-20T10:47:30;21.67;;;9.20;;
8714;SDS011;4394;51.208;8.904;2022-11-20T10:50:19;17.73;;;8.07;;
8714;SDS011;4394;51.208;8.904;2022-11-20T10:53:13;17.90;;;8.53;;
8714;SDS011;4394;51.208;8.904;2022-11-20T10:56:14;19.30;;;8.67;;
8714;SDS011;4394;51.208;8.904;2022-11-20T10:59:24;19.20;;;9.23;;
8714;SDS011;4394;51.208;8.904;2022-11-20T11:02:33;19.93;;;9.07;;
